createdAt,value
2018-12-31T00:01:58.840Z,4.50
2018-12-31T00:04:27.425Z,4.50
2018-12-31T00:06:55.886Z,4.50
2018-12-31T00:09:24.649Z,4.50
2018-12-31T00:11:53.153Z,4.40
2018-12-31T00:14:21.797Z,4.40
2018-12-31T00:16:50.423Z,4.40
2018-12-31T00:19:19.106Z,4.40
2018-12-31T00:21:47.635Z,4.40
2018-12-31T00:24:16.268Z,4.40
2018-12-31T00:26:44.852Z,4.40
2018-12-31T00:29:13.425Z,4.50
2018-12-31T00:31:41.925Z,4.50
2018-12-31T00:34:11.871Z,4.40
2018-12-31T00:36:41.364Z,4.50
2018-12-31T00:39:10.712Z,4.50
2018-12-31T00:41:39.297Z,4.40
2018-12-31T00:44:08.045Z,4.40
2018-12-31T00:46:37.617Z,4.50
2018-12-31T00:49:06.451Z,4.50
2018-12-31T00:51:36.479Z,4.50
2018-12-31T00:54:05.082Z,4.50
2018-12-31T00:56:33.582Z,4.50
2018-12-31T00:59:02.224Z,4.50
2018-12-31T01:01:30.790Z,4.50
2018-12-31T01:03:59.427Z,4.50
2018-12-31T01:06:27.913Z,4.50
2018-12-31T01:08:56.498Z,4.50
2018-12-31T01:11:24.941Z,4.50
2018-12-31T01:13:53.430Z,4.50
2018-12-31T01:16:21.939Z,4.50
2018-12-31T01:18:50.396Z,4.50
2018-12-31T01:21:18.859Z,4.50
2018-12-31T01:23:47.495Z,4.50
2018-12-31T01:26:16.148Z,4.50
2018-12-31T01:28:44.711Z,4.50
2018-12-31T01:31:13.315Z,4.50
2018-12-31T01:33:41.838Z,4.40
2018-12-31T01:36:10.276Z,4.50
2018-12-31T01:38:39.109Z,4.50
2018-12-31T01:41:07.545Z,4.40
2018-12-31T01:43:36.069Z,4.40
2018-12-31T01:46:04.804Z,4.40
2018-12-31T01:48:33.346Z,4.40
2018-12-31T01:51:01.863Z,4.50
2018-12-31T01:53:30.374Z,4.40
2018-12-31T01:55:58.943Z,4.40
2018-12-31T01:58:27.539Z,4.40
2018-12-31T02:00:56.143Z,4.40
2018-12-31T02:03:24.725Z,4.40
2018-12-31T02:05:53.294Z,4.30
2018-12-31T02:08:21.865Z,4.40
2018-12-31T02:10:50.395Z,4.40
2018-12-31T02:13:18.884Z,4.40
2018-12-31T02:15:47.402Z,4.40
2018-12-31T02:18:15.896Z,4.30
2018-12-31T02:20:44.458Z,4.30
2018-12-31T02:23:13.145Z,4.30
2018-12-31T02:25:41.659Z,4.30
2018-12-31T02:28:10.324Z,4.30
2018-12-31T02:30:38.888Z,4.30
2018-12-31T02:33:07.452Z,4.30
2018-12-31T02:35:36.009Z,4.30
2018-12-31T02:38:04.569Z,4.30
2018-12-31T02:40:33.002Z,4.30
2018-12-31T02:43:01.470Z,4.40
2018-12-31T02:45:30.079Z,4.40
2018-12-31T02:47:58.728Z,4.40
2018-12-31T02:50:27.306Z,4.40
2018-12-31T02:52:55.886Z,4.40
2018-12-31T02:55:24.474Z,4.40
2018-12-31T02:57:52.930Z,4.40
2018-12-31T03:00:21.950Z,4.30
2018-12-31T03:02:50.530Z,4.40
2018-12-31T03:05:19.130Z,4.30
2018-12-31T03:07:47.765Z,4.20
2018-12-31T03:10:16.380Z,4.20
2018-12-31T03:12:44.847Z,4.10
2018-12-31T03:15:13.519Z,4.10
2018-12-31T03:17:42.060Z,4.10
2018-12-31T03:20:10.538Z,4.10
2018-12-31T03:22:38.983Z,4.10
2018-12-31T03:25:07.553Z,4.00
2018-12-31T03:27:36.137Z,3.90
2018-12-31T03:30:05.533Z,3.90
2018-12-31T03:32:34.146Z,3.80
2018-12-31T03:35:02.714Z,3.70
2018-12-31T03:37:31.247Z,3.50
2018-12-31T03:39:59.882Z,3.40
2018-12-31T03:42:28.392Z,3.30
2018-12-31T03:44:57.025Z,3.20
2018-12-31T03:47:25.451Z,3.20
2018-12-31T03:49:55.078Z,3.20
2018-12-31T03:52:23.585Z,3.10
2018-12-31T03:54:52.258Z,3.10
2018-12-31T03:57:20.763Z,3.00
2018-12-31T03:59:49.369Z,2.90
2018-12-31T04:02:17.938Z,2.80
2018-12-31T04:04:46.411Z,2.80
2018-12-31T04:07:14.945Z,2.70
2018-12-31T04:09:43.444Z,2.60
2018-12-31T04:12:11.922Z,2.50
2018-12-31T04:14:40.410Z,2.50
2018-12-31T04:17:09.073Z,2.50
2018-12-31T04:19:37.474Z,2.50
2018-12-31T04:22:05.987Z,2.50
2018-12-31T04:24:34.514Z,2.60
2018-12-31T04:27:02.948Z,2.70
2018-12-31T04:29:31.430Z,2.80
2018-12-31T04:32:00.079Z,3.00
2018-12-31T04:34:28.510Z,3.00
2018-12-31T04:36:57.025Z,3.10
2018-12-31T04:39:25.783Z,3.10
2018-12-31T04:41:54.338Z,3.20
2018-12-31T04:44:22.962Z,3.20
2018-12-31T04:46:51.444Z,3.30
2018-12-31T04:49:20.077Z,3.20
2018-12-31T04:51:48.537Z,3.20
2018-12-31T04:54:17.016Z,3.30
2018-12-31T04:56:45.554Z,3.30
2018-12-31T04:59:14.120Z,3.20
2018-12-31T05:01:42.646Z,3.20
2018-12-31T05:04:11.166Z,3.10
2018-12-31T05:06:39.996Z,3.10
2018-12-31T05:09:08.450Z,3.00
2018-12-31T05:11:36.931Z,3.00
2018-12-31T05:14:05.551Z,2.90
2018-12-31T05:16:33.998Z,2.90
2018-12-31T05:19:02.535Z,3.00
2018-12-31T05:21:31.034Z,2.90
2018-12-31T05:23:59.569Z,2.80
2018-12-31T05:26:28.110Z,2.80
2018-12-31T05:28:56.651Z,2.70
2018-12-31T05:31:25.100Z,2.60
2018-12-31T05:33:53.737Z,2.50
2018-12-31T05:36:22.395Z,2.40
2018-12-31T05:38:50.842Z,2.30
2018-12-31T05:41:19.402Z,2.20
2018-12-31T05:43:48.010Z,2.10
2018-12-31T05:46:16.476Z,2.10
2018-12-31T05:48:44.985Z,2.00
2018-12-31T05:51:13.611Z,2.00
2018-12-31T05:53:42.133Z,1.90
2018-12-31T05:56:10.631Z,1.90
2018-12-31T05:58:39.299Z,1.80
2018-12-31T06:01:07.717Z,1.80
2018-12-31T06:03:36.260Z,1.80
2018-12-31T06:06:04.868Z,1.80
2018-12-31T06:08:33.399Z,1.90
2018-12-31T06:11:02.433Z,1.90
2018-12-31T06:13:31.058Z,2.00
2018-12-31T06:15:59.609Z,2.10
2018-12-31T06:18:28.161Z,2.10
2018-12-31T06:20:56.902Z,2.20
2018-12-31T06:23:25.477Z,2.30
2018-12-31T06:25:53.936Z,2.40
2018-12-31T06:28:22.546Z,2.50
2018-12-31T06:30:51.083Z,2.60
2018-12-31T06:33:19.830Z,2.70
2018-12-31T06:35:48.377Z,2.80
2018-12-31T06:38:17.094Z,2.90
2018-12-31T06:40:45.750Z,2.90
2018-12-31T06:43:14.315Z,2.90
2018-12-31T06:45:42.796Z,3.00
2018-12-31T06:48:11.422Z,3.00
2018-12-31T06:50:39.957Z,3.00
2018-12-31T06:53:08.391Z,3.10
2018-12-31T06:55:36.845Z,3.10
2018-12-31T06:58:05.485Z,3.10
2018-12-31T07:00:34.039Z,3.10
2018-12-31T07:03:02.488Z,3.20
2018-12-31T07:05:31.049Z,3.20
2018-12-31T07:07:59.579Z,3.20
2018-12-31T07:10:28.040Z,3.20
2018-12-31T07:12:56.547Z,3.20
2018-12-31T07:15:25.120Z,3.20
2018-12-31T07:17:53.660Z,3.20
2018-12-31T07:20:22.220Z,3.30
2018-12-31T07:22:50.682Z,3.30
2018-12-31T07:25:19.116Z,3.30
2018-12-31T07:27:47.718Z,3.30
2018-12-31T07:30:16.327Z,3.30
2018-12-31T07:32:44.775Z,3.20
2018-12-31T07:35:13.252Z,3.30
2018-12-31T07:37:41.743Z,3.30
2018-12-31T07:40:10.241Z,3.30
2018-12-31T07:42:38.703Z,3.30
2018-12-31T07:45:07.167Z,3.20
2018-12-31T07:47:35.575Z,3.20
2018-12-31T07:50:04.926Z,3.20
2018-12-31T07:52:33.420Z,3.30
2018-12-31T07:55:01.956Z,3.20
2018-12-31T07:57:30.467Z,3.20
2018-12-31T07:59:58.944Z,3.20
2018-12-31T08:02:27.399Z,3.30
2018-12-31T08:04:55.871Z,3.30
2018-12-31T08:07:24.426Z,3.30
2018-12-31T08:09:52.991Z,3.30
2018-12-31T08:12:21.474Z,3.40
2018-12-31T08:14:49.983Z,3.40
2018-12-31T08:17:18.481Z,3.50
2018-12-31T08:19:47.104Z,3.60
2018-12-31T08:22:15.574Z,3.70
2018-12-31T08:24:44.116Z,3.70
2018-12-31T08:27:12.662Z,3.70
2018-12-31T08:29:41.105Z,3.70
2018-12-31T08:32:09.616Z,3.60
2018-12-31T08:34:38.207Z,3.60
2018-12-31T08:37:06.664Z,3.60
2018-12-31T08:39:35.108Z,3.70
2018-12-31T08:42:03.659Z,3.80
2018-12-31T08:44:32.081Z,4.00
2018-12-31T08:47:00.531Z,4.10
2018-12-31T08:49:29.068Z,4.20
2018-12-31T08:51:57.487Z,4.30
2018-12-31T08:54:26.132Z,4.40
2018-12-31T08:56:54.588Z,4.60
2018-12-31T08:59:23.231Z,4.70
2018-12-31T09:01:51.754Z,4.80
2018-12-31T09:04:20.265Z,4.80
2018-12-31T09:06:48.781Z,4.80
2018-12-31T09:09:17.230Z,4.70
2018-12-31T09:11:45.992Z,4.60
2018-12-31T09:14:14.454Z,4.60
2018-12-31T09:16:42.955Z,4.50
2018-12-31T09:19:11.538Z,4.50
2018-12-31T09:21:39.975Z,4.40
2018-12-31T09:24:08.481Z,4.40
2018-12-31T09:26:37.023Z,4.40
2018-12-31T09:29:05.622Z,4.30
2018-12-31T09:31:34.401Z,4.30
2018-12-31T09:34:03.260Z,4.20
2018-12-31T09:36:31.862Z,4.20
2018-12-31T09:39:00.412Z,4.20
2018-12-31T09:41:28.908Z,4.10
2018-12-31T09:43:57.386Z,4.10
2018-12-31T09:46:25.815Z,4.20
2018-12-31T09:48:54.378Z,4.20
2018-12-31T09:51:23.004Z,4.20
2018-12-31T09:53:51.559Z,4.30
2018-12-31T09:56:20.053Z,4.30
2018-12-31T09:58:48.752Z,4.30
2018-12-31T10:01:17.251Z,4.40
2018-12-31T10:03:47.609Z,4.40
2018-12-31T10:06:15.946Z,4.40
2018-12-31T10:08:49.210Z,4.50
2018-12-31T10:11:14.704Z,4.50
2018-12-31T10:13:43.230Z,4.60
2018-12-31T10:16:11.685Z,4.60
2018-12-31T10:18:40.255Z,4.60
2018-12-31T10:21:08.793Z,4.60
2018-12-31T10:23:37.316Z,4.60
2018-12-31T10:26:05.835Z,4.70
2018-12-31T10:28:34.252Z,4.60
2018-12-31T10:31:02.870Z,4.70
2018-12-31T10:33:31.419Z,4.60
2018-12-31T10:35:59.935Z,4.70
2018-12-31T10:38:28.357Z,4.70
2018-12-31T10:40:56.946Z,4.60
2018-12-31T10:43:25.479Z,4.60
2018-12-31T10:45:54.109Z,4.60
2018-12-31T10:48:22.649Z,4.60
2018-12-31T10:50:51.220Z,4.60
2018-12-31T10:53:19.699Z,4.60
2018-12-31T10:55:48.553Z,4.60
2018-12-31T10:58:17.214Z,4.60
2018-12-31T11:00:45.705Z,4.50
2018-12-31T11:03:14.226Z,4.40
2018-12-31T11:05:42.701Z,4.40
2018-12-31T11:08:11.174Z,4.30
2018-12-31T11:10:40.899Z,4.40
2018-12-31T11:13:09.578Z,4.30
2018-12-31T11:15:38.043Z,4.30
2018-12-31T11:18:06.549Z,4.30
2018-12-31T11:20:34.979Z,4.30
2018-12-31T11:23:03.514Z,4.20
2018-12-31T11:25:31.991Z,4.20
2018-12-31T11:28:00.587Z,4.20
2018-12-31T11:30:29.052Z,4.20
2018-12-31T11:32:57.537Z,4.20
2018-12-31T11:35:26.105Z,4.20
2018-12-31T11:37:54.609Z,4.20
2018-12-31T11:40:23.266Z,4.10
2018-12-31T11:42:52.286Z,4.10
2018-12-31T11:45:20.777Z,4.10
2018-12-31T11:47:49.448Z,4.10
2018-12-31T11:50:17.986Z,4.10
2018-12-31T11:52:46.607Z,4.10
2018-12-31T11:55:15.097Z,4.10
2018-12-31T11:57:43.710Z,4.10
2018-12-31T12:00:12.104Z,4.10
2018-12-31T12:02:40.838Z,4.10
2018-12-31T12:05:09.241Z,4.10
2018-12-31T12:07:38.097Z,4.10
2018-12-31T12:10:06.629Z,4.10
2018-12-31T12:12:35.123Z,4.20
2018-12-31T12:15:03.681Z,4.20
2018-12-31T12:17:32.295Z,4.30
2018-12-31T12:20:00.849Z,4.30
2018-12-31T12:22:29.587Z,4.40
2018-12-31T12:24:58.123Z,4.30
2018-12-31T12:27:26.630Z,4.30
2018-12-31T12:29:55.073Z,4.40
2018-12-31T12:32:23.613Z,4.40
2018-12-31T12:34:52.379Z,4.40
2018-12-31T12:37:20.912Z,4.30
2018-12-31T12:39:49.415Z,4.30
2018-12-31T12:42:18.024Z,4.30
2018-12-31T12:44:46.764Z,4.30
2018-12-31T12:47:15.294Z,4.30
2018-12-31T12:49:43.740Z,4.30
2018-12-31T12:52:12.234Z,4.30
2018-12-31T12:54:40.933Z,4.20
2018-12-31T12:57:09.328Z,4.20
2018-12-31T12:59:37.916Z,4.20
2018-12-31T13:02:06.511Z,4.10
2018-12-31T13:04:35.107Z,4.10
2018-12-31T13:07:03.620Z,4.00
2018-12-31T13:09:33.144Z,4.00
2018-12-31T13:12:01.707Z,3.90
2018-12-31T13:14:30.179Z,3.90
2018-12-31T13:16:58.685Z,3.90
2018-12-31T13:19:27.170Z,3.90
2018-12-31T13:21:55.640Z,3.90
2018-12-31T13:24:24.296Z,3.90
2018-12-31T13:26:52.826Z,3.90
2018-12-31T13:29:21.348Z,3.80
2018-12-31T13:31:49.958Z,3.80
2018-12-31T13:34:18.426Z,3.70
2018-12-31T13:36:46.831Z,3.70
2018-12-31T13:39:15.639Z,3.80
2018-12-31T13:41:44.112Z,3.70
2018-12-31T13:44:12.667Z,3.70
2018-12-31T13:46:41.232Z,3.60
2018-12-31T13:49:11.616Z,3.60
2018-12-31T13:51:39.993Z,3.60
2018-12-31T13:54:08.666Z,3.60
2018-12-31T13:56:37.112Z,3.60
2018-12-31T13:59:05.537Z,3.60
2018-12-31T14:01:34.122Z,3.60
2018-12-31T14:04:03.060Z,3.60
2018-12-31T14:06:31.593Z,3.60
2018-12-31T14:09:00.114Z,3.60
2018-12-31T14:11:28.690Z,3.60
2018-12-31T14:13:57.059Z,3.60
2018-12-31T14:16:25.942Z,3.60
2018-12-31T14:18:54.490Z,3.60
2018-12-31T14:21:23.163Z,3.60
2018-12-31T14:23:51.750Z,3.60
2018-12-31T14:26:20.246Z,3.50
2018-12-31T14:28:49.143Z,3.50
2018-12-31T14:31:17.631Z,3.50
2018-12-31T14:33:46.148Z,3.40
2018-12-31T14:36:14.666Z,3.40
2018-12-31T14:38:43.254Z,3.40
2018-12-31T14:41:11.988Z,3.50
2018-12-31T14:43:40.502Z,3.50
2018-12-31T14:46:09.057Z,3.40
2018-12-31T14:48:37.690Z,3.40
2018-12-31T14:51:06.186Z,3.40
2018-12-31T14:53:34.814Z,3.40
2018-12-31T14:56:03.359Z,3.40
2018-12-31T14:58:31.812Z,3.40
2018-12-31T15:01:00.406Z,3.40
2018-12-31T15:03:28.929Z,3.40
2018-12-31T15:05:57.432Z,3.30
2018-12-31T15:08:26.030Z,3.40
2018-12-31T15:10:54.886Z,3.40
2018-12-31T15:13:24.363Z,3.40
2018-12-31T15:15:53.540Z,3.40
2018-12-31T15:18:22.576Z,3.40
2018-12-31T15:20:51.581Z,3.40
2018-12-31T15:23:20.192Z,3.40
2018-12-31T15:25:48.644Z,3.40
2018-12-31T15:28:17.215Z,3.40
2018-12-31T15:30:45.795Z,3.40
2018-12-31T15:33:14.253Z,3.40
2018-12-31T15:35:42.652Z,3.40
2018-12-31T15:38:11.311Z,3.50
2018-12-31T15:40:39.801Z,3.40
2018-12-31T15:43:08.402Z,3.40
2018-12-31T15:45:37.381Z,3.50
2018-12-31T15:48:05.949Z,3.40
2018-12-31T15:50:34.436Z,3.50
2018-12-31T15:53:03.057Z,3.40
2018-12-31T15:55:31.653Z,3.40
2018-12-31T15:58:00.619Z,3.40
2018-12-31T16:00:29.132Z,3.40
2018-12-31T16:02:57.691Z,3.40
2018-12-31T16:05:26.262Z,3.40
2018-12-31T16:07:54.927Z,3.40
2018-12-31T16:10:23.373Z,3.40
2018-12-31T16:12:51.858Z,3.30
2018-12-31T16:15:20.312Z,3.20
2018-12-31T16:17:48.967Z,3.30
2018-12-31T16:20:17.506Z,3.20
2018-12-31T16:22:46.483Z,3.20
2018-12-31T16:25:15.026Z,3.10
2018-12-31T16:27:43.658Z,3.10
2018-12-31T16:30:12.182Z,3.00
2018-12-31T16:32:40.661Z,3.00
2018-12-31T16:35:09.088Z,3.00
2018-12-31T16:37:37.979Z,3.00
2018-12-31T16:40:06.907Z,3.10
2018-12-31T16:42:35.512Z,3.10
2018-12-31T16:45:04.817Z,3.10
2018-12-31T16:47:33.402Z,3.10
2018-12-31T16:50:02.043Z,3.10
2018-12-31T16:52:30.558Z,3.10
2018-12-31T16:54:59.205Z,3.10
2018-12-31T16:57:27.802Z,3.00
2018-12-31T16:59:56.286Z,3.00
2018-12-31T17:02:25.203Z,3.00
2018-12-31T17:04:53.817Z,2.90
2018-12-31T17:07:28.258Z,2.90
2018-12-31T17:09:52.933Z,2.80
2018-12-31T17:12:21.545Z,2.80
2018-12-31T17:14:50.252Z,2.80
2018-12-31T17:17:18.763Z,2.80
2018-12-31T17:19:47.503Z,2.80
2018-12-31T17:22:16.057Z,2.80
2018-12-31T17:24:44.654Z,2.80
2018-12-31T17:27:13.217Z,2.80
2018-12-31T17:29:41.896Z,2.70
2018-12-31T17:32:10.433Z,2.70
2018-12-31T17:34:39.025Z,2.80
2018-12-31T17:37:07.808Z,2.80
2018-12-31T17:39:36.268Z,2.80
2018-12-31T17:42:09.705Z,2.80
2018-12-31T17:44:35.323Z,2.80
2018-12-31T17:47:04.099Z,2.70
2018-12-31T17:49:32.694Z,2.80
2018-12-31T17:52:01.175Z,2.80
2018-12-31T17:54:30.306Z,2.80
2018-12-31T17:56:58.881Z,2.70
2018-12-31T17:59:27.499Z,2.70
2018-12-31T18:01:56.119Z,2.70
2018-12-31T18:04:24.673Z,2.70
2018-12-31T18:06:53.211Z,2.70
2018-12-31T18:09:21.781Z,2.70
2018-12-31T18:11:50.298Z,2.70
2018-12-31T18:14:18.932Z,2.60
2018-12-31T18:16:47.555Z,2.60
2018-12-31T18:19:16.153Z,2.60
2018-12-31T18:21:44.680Z,2.60
2018-12-31T18:24:13.209Z,2.60
2018-12-31T18:26:41.690Z,2.60
2018-12-31T18:29:10.343Z,2.70
2018-12-31T18:31:38.810Z,2.70
2018-12-31T18:34:07.326Z,2.70
2018-12-31T18:36:35.879Z,2.70
2018-12-31T18:39:06.469Z,2.70
2018-12-31T18:41:34.926Z,2.70
2018-12-31T18:44:03.473Z,2.70
2018-12-31T18:46:32.085Z,2.70
2018-12-31T18:49:00.543Z,2.60
2018-12-31T18:51:29.227Z,2.60
2018-12-31T18:53:57.707Z,2.60
2018-12-31T18:56:26.155Z,2.60
2018-12-31T18:58:54.933Z,2.60
2018-12-31T19:01:23.501Z,2.60
2018-12-31T19:03:52.016Z,2.60
2018-12-31T19:06:20.632Z,2.50
2018-12-31T19:08:49.149Z,2.50
2018-12-31T19:11:17.610Z,2.50
2018-12-31T19:13:46.140Z,2.50
2018-12-31T19:16:14.603Z,2.50
2018-12-31T19:18:43.080Z,2.50
2018-12-31T19:21:13.277Z,2.50
2018-12-31T19:23:41.717Z,2.60
2018-12-31T19:26:10.231Z,2.60
2018-12-31T19:28:38.865Z,2.60
2018-12-31T19:31:07.270Z,2.60
2018-12-31T19:33:35.906Z,2.50
2018-12-31T19:36:04.594Z,2.50
2018-12-31T19:38:33.522Z,2.50
2018-12-31T19:41:02.065Z,2.50
2018-12-31T19:43:30.648Z,2.50
2018-12-31T19:45:59.174Z,2.50
2018-12-31T19:48:27.740Z,2.50
2018-12-31T19:50:56.269Z,2.50
2018-12-31T19:53:24.738Z,2.50
2018-12-31T19:55:53.382Z,2.50
2018-12-31T19:58:21.891Z,2.50
2018-12-31T20:00:50.520Z,2.40
2018-12-31T20:03:19.068Z,2.40
2018-12-31T20:05:47.664Z,2.40
2018-12-31T20:08:16.310Z,2.40
2018-12-31T20:10:44.927Z,2.40
2018-12-31T20:13:13.506Z,2.40
2018-12-31T20:15:48.559Z,2.40
2018-12-31T20:18:12.333Z,2.40
2018-12-31T20:20:40.931Z,2.40
2018-12-31T20:23:09.442Z,2.40
2018-12-31T20:25:37.983Z,2.40
2018-12-31T20:28:06.682Z,2.50
2018-12-31T20:30:35.282Z,2.40
2018-12-31T20:33:03.785Z,2.50
2018-12-31T20:35:32.384Z,2.40
2018-12-31T20:38:00.925Z,2.40
2018-12-31T20:40:29.545Z,2.40
2018-12-31T20:42:58.091Z,2.40
2018-12-31T20:45:26.785Z,2.40
2018-12-31T20:48:01.799Z,2.40
2018-12-31T20:50:25.652Z,2.40
2018-12-31T20:52:54.202Z,2.40
2018-12-31T20:55:22.789Z,2.40
2018-12-31T20:57:51.439Z,2.40
2018-12-31T21:00:20.217Z,2.40
2018-12-31T21:02:48.701Z,2.40
2018-12-31T21:05:17.316Z,2.40
2018-12-31T21:07:45.914Z,2.30
2018-12-31T21:10:14.459Z,2.30
2018-12-31T21:12:43.200Z,2.30
2018-12-31T21:15:11.785Z,2.30
2018-12-31T21:17:40.393Z,2.20
2018-12-31T21:20:09.272Z,2.30
2018-12-31T21:22:37.774Z,2.30
2018-12-31T21:25:06.387Z,2.40
2018-12-31T21:27:34.993Z,2.30
2018-12-31T21:30:04.032Z,2.30
2018-12-31T21:32:33.686Z,2.30
2018-12-31T21:35:02.232Z,2.30
2018-12-31T21:37:30.678Z,2.30
2018-12-31T21:39:59.452Z,2.30
2018-12-31T21:42:27.898Z,2.30
2018-12-31T21:44:56.441Z,2.30
2018-12-31T21:47:25.046Z,2.30
2018-12-31T21:49:53.687Z,2.20
2018-12-31T21:52:22.211Z,2.20
2018-12-31T21:54:50.796Z,2.30
2018-12-31T21:57:19.260Z,2.20
2018-12-31T21:59:47.873Z,2.30
2018-12-31T22:02:16.365Z,2.30
2018-12-31T22:04:45.047Z,2.30
2018-12-31T22:07:13.711Z,2.30
2018-12-31T22:09:42.403Z,2.40
2018-12-31T22:12:10.964Z,2.40
2018-12-31T22:14:39.432Z,2.40
2018-12-31T22:17:08.010Z,2.40
2018-12-31T22:19:36.901Z,2.40
2018-12-31T22:22:05.449Z,2.40
2018-12-31T22:24:33.929Z,2.40
2018-12-31T22:27:02.685Z,2.40
2018-12-31T22:29:31.423Z,2.40
2018-12-31T22:31:59.952Z,2.50
2018-12-31T22:34:28.436Z,2.50
2018-12-31T22:36:56.959Z,2.60
2018-12-31T22:39:25.502Z,2.60
2018-12-31T22:41:54.003Z,2.60
2018-12-31T22:44:22.602Z,2.70
2018-12-31T22:46:51.739Z,2.70
2018-12-31T22:49:20.324Z,2.70
2018-12-31T22:51:48.829Z,2.70
2018-12-31T22:54:17.503Z,2.80
2018-12-31T22:56:46.138Z,2.80
2018-12-31T22:59:15.050Z,2.80
2018-12-31T23:01:43.770Z,2.90
2018-12-31T23:04:12.406Z,2.90
2018-12-31T23:06:41.039Z,2.90
2018-12-31T23:09:11.030Z,2.90
2018-12-31T23:11:39.809Z,3.00
2018-12-31T23:14:08.432Z,3.00
2018-12-31T23:16:37.034Z,3.00
2018-12-31T23:19:05.580Z,3.10
2018-12-31T23:21:34.004Z,3.10
2018-12-31T23:24:02.561Z,3.10
2018-12-31T23:26:31.152Z,3.10
2018-12-31T23:28:59.690Z,3.10
2018-12-31T23:31:28.253Z,3.10
2018-12-31T23:33:57.012Z,3.10
2018-12-31T23:36:25.469Z,3.10
2018-12-31T23:38:54.224Z,3.10
2018-12-31T23:41:22.729Z,3.10
2018-12-31T23:43:51.244Z,3.10
2018-12-31T23:46:21.404Z,3.10
2018-12-31T23:48:50.206Z,3.10
2018-12-31T23:51:19.230Z,3.20
2018-12-31T23:53:47.879Z,3.10
2018-12-31T23:56:16.440Z,3.10
2018-12-31T23:58:44.924Z,3.10
